sensor_id;sensor_type;location;lat;lon;timestamp;temperature;humidity
35559;DHT22;21661;50.794;-1.066;2024-02-21T00:00:47;10.80;99.90
35559;DHT22;21661;50.794;-1.066;2024-02-21T00:03:13;10.80;99.90
35559;DHT22;21661;50.794;-1.066;2024-02-21T00:05:39;10.80;99.90
35559;DHT22;21661;50.794;-1.066;2024-02-21T00:08:05;10.70;99.90
35559;DHT22;21661;50.794;-1.066;2024-02-21T00:10:33;10.70;99.90
35559;DHT22;21661;50.794;-1.066;2024-02-21T00:13:00;10.70;99.90
35559;DHT22;21661;50.794;-1.066;2024-02-21T00:15:26;10.80;99.90
35559;DHT22;21661;50.794;-1.066;2024-02-21T00:17:51;10.80;99.90
35559;DHT22;21661;50.794;-1.066;2024-02-21T00:20:17;10.80;99.90
35559;DHT22;21661;50.794;-1.066;2024-02-21T00:22:43;10.80;99.90
35559;DHT22;21661;50.794;-1.066;2024-02-21T00:25:09;10.80;99.90
35559;DHT22;21661;50.794;-1.066;2024-02-21T00:27:35;10.80;99.90
35559;DHT22;21661;50.794;-1.066;2024-02-21T00:30:01;10.70;99.90
35559;DHT22;21661;50.794;-1.066;2024-02-21T00:32:27;10.70;99.90
35559;DHT22;21661;50.794;-1.066;2024-02-21T00:34:52;10.70;99.90
35559;DHT22;21661;50.794;-1.066;2024-02-21T00:37:18;10.70;99.90
35559;DHT22;21661;50.794;-1.066;2024-02-21T00:39:44;10.70;99.90
35559;DHT22;21661;50.794;-1.066;2024-02-21T00:42:09;10.70;99.90
35559;DHT22;21661;50.794;-1.066;2024-02-21T00:44:35;10.70;99.90
35559;DHT22;21661;50.794;-1.066;2024-02-21T00:47:00;10.70;99.90
35559;DHT22;21661;50.794;-1.066;2024-02-21T00:49:26;10.70;99.90
35559;DHT22;21661;50.794;-1.066;2024-02-21T00:51:52;10.80;99.90
35559;DHT22;21661;50.794;-1.066;2024-02-21T00:54:17;10.70;99.90
35559;DHT22;21661;50.794;-1.066;2024-02-21T00:56:43;10.70;99.90
35559;DHT22;21661;50.794;-1.066;2024-02-21T00:59:09;10.70;99.90
35559;DHT22;21661;50.794;-1.066;2024-02-21T01:01:34;10.70;99.90
35559;DHT22;21661;50.794;-1.066;2024-02-21T01:04:00;10.70;99.90
35559;DHT22;21661;50.794;-1.066;2024-02-21T01:06:26;10.70;99.90
35559;DHT22;21661;50.794;-1.066;2024-02-21T01:08:51;10.70;99.90
35559;DHT22;21661;50.794;-1.066;2024-02-21T01:11:17;10.70;99.90
35559;DHT22;21661;50.794;-1.066;2024-02-21T01:13:43;10.60;99.90
35559;DHT22;21661;50.794;-1.066;2024-02-21T01:16:09;10.60;99.90
35559;DHT22;21661;50.794;-1.066;2024-02-21T01:18:37;10.60;99.90
35559;DHT22;21661;50.794;-1.066;2024-02-21T01:21:04;10.60;99.90
35559;DHT22;21661;50.794;-1.066;2024-02-21T01:23:33;10.60;99.90
35559;DHT22;21661;50.794;-1.066;2024-02-21T01:25:59;10.60;99.90
35559;DHT22;21661;50.794;-1.066;2024-02-21T01:28:25;10.60;99.90
35559;DHT22;21661;50.794;-1.066;2024-02-21T01:30:50;10.60;99.90
35559;DHT22;21661;50.794;-1.066;2024-02-21T01:33:17;10.60;99.90
35559;DHT22;21661;50.794;-1.066;2024-02-21T01:35:42;10.50;99.90
35559;DHT22;21661;50.794;-1.066;2024-02-21T01:38:08;10.60;99.90
35559;DHT22;21661;50.794;-1.066;2024-02-21T01:40:34;10.50;99.90
35559;DHT22;21661;50.794;-1.066;2024-02-21T01:42:59;10.50;99.90
35559;DHT22;21661;50.794;-1.066;2024-02-21T01:45:25;10.50;99.90
35559;DHT22;21661;50.794;-1.066;2024-02-21T01:47:50;10.50;99.90
35559;DHT22;21661;50.794;-1.066;2024-02-21T01:50:17;10.50;99.90
35559;DHT22;21661;50.794;-1.066;2024-02-21T01:52:46;10.50;99.90
35559;DHT22;21661;50.794;-1.066;2024-02-21T01:55:14;10.50;99.90
35559;DHT22;21661;50.794;-1.066;2024-02-21T01:57:42;10.50;99.90
35559;DHT22;21661;50.794;-1.066;2024-02-21T02:00:12;10.50;99.90
35559;DHT22;21661;50.794;-1.066;2024-02-21T02:02:39;10.50;99.90
35559;DHT22;21661;50.794;-1.066;2024-02-21T02:05:06;10.40;99.90
35559;DHT22;21661;50.794;-1.066;2024-02-21T02:07:33;10.40;99.90
35559;DHT22;21661;50.794;-1.066;2024-02-21T02:09:58;10.50;99.90
35559;DHT22;21661;50.794;-1.066;2024-02-21T02:12:24;10.40;99.90
35559;DHT22;21661;50.794;-1.066;2024-02-21T02:15:00;10.40;99.90
35559;DHT22;21661;50.794;-1.066;2024-02-21T02:17:26;10.40;99.90
35559;DHT22;21661;50.794;-1.066;2024-02-21T02:19:51;10.40;99.90
35559;DHT22;21661;50.794;-1.066;2024-02-21T02:22:22;10.50;99.90
35559;DHT22;21661;50.794;-1.066;2024-02-21T02:24:48;10.40;99.90
35559;DHT22;21661;50.794;-1.066;2024-02-21T02:27:14;10.50;99.90
35559;DHT22;21661;50.794;-1.066;2024-02-21T02:29:40;10.40;99.90
35559;DHT22;21661;50.794;-1.066;2024-02-21T02:32:06;10.40;99.90
35559;DHT22;21661;50.794;-1.066;2024-02-21T02:34:31;10.40;99.90
35559;DHT22;21661;50.794;-1.066;2024-02-21T02:36:57;10.40;99.90
35559;DHT22;21661;50.794;-1.066;2024-02-21T02:39:22;10.40;99.90
35559;DHT22;21661;50.794;-1.066;2024-02-21T02:41:48;10.40;99.90
35559;DHT22;21661;50.794;-1.066;2024-02-21T02:44:14;10.40;99.90
35559;DHT22;21661;50.794;-1.066;2024-02-21T02:46:42;10.40;99.90
35559;DHT22;21661;50.794;-1.066;2024-02-21T02:49:08;10.40;99.90
35559;DHT22;21661;50.794;-1.066;2024-02-21T02:51:34;10.30;99.90
35559;DHT22;21661;50.794;-1.066;2024-02-21T02:54:00;10.30;99.90
35559;DHT22;21661;50.794;-1.066;2024-02-21T02:56:25;10.40;99.90
35559;DHT22;21661;50.794;-1.066;2024-02-21T02:58:51;10.40;99.90
35559;DHT22;21661;50.794;-1.066;2024-02-21T03:01:16;10.40;99.90
35559;DHT22;21661;50.794;-1.066;2024-02-21T03:03:42;10.40;99.90
35559;DHT22;21661;50.794;-1.066;2024-02-21T03:06:08;10.40;99.90
35559;DHT22;21661;50.794;-1.066;2024-02-21T03:08:33;10.30;99.90
35559;DHT22;21661;50.794;-1.066;2024-02-21T03:10:59;10.30;99.90
35559;DHT22;21661;50.794;-1.066;2024-02-21T03:13:25;10.30;99.90
35559;DHT22;21661;50.794;-1.066;2024-02-21T03:15:51;10.30;99.90
35559;DHT22;21661;50.794;-1.066;2024-02-21T03:18:17;10.30;99.90
35559;DHT22;21661;50.794;-1.066;2024-02-21T03:20:42;10.30;99.90
35559;DHT22;21661;50.794;-1.066;2024-02-21T03:23:08;10.30;99.90
35559;DHT22;21661;50.794;-1.066;2024-02-21T03:25:34;10.30;99.90
35559;DHT22;21661;50.794;-1.066;2024-02-21T03:27:59;10.30;99.90
35559;DHT22;21661;50.794;-1.066;2024-02-21T03:30:25;10.30;99.90
35559;DHT22;21661;50.794;-1.066;2024-02-21T03:32:51;10.30;99.90
35559;DHT22;21661;50.794;-1.066;2024-02-21T03:35:16;10.40;99.90
35559;DHT22;21661;50.794;-1.066;2024-02-21T03:37:44;10.30;99.90
35559;DHT22;21661;50.794;-1.066;2024-02-21T03:40:10;10.30;99.90
35559;DHT22;21661;50.794;-1.066;2024-02-21T03:42:36;10.30;99.90
35559;DHT22;21661;50.794;-1.066;2024-02-21T03:45:02;10.30;99.90
35559;DHT22;21661;50.794;-1.066;2024-02-21T03:47:29;10.30;99.90
35559;DHT22;21661;50.794;-1.066;2024-02-21T03:49:54;10.30;99.90
35559;DHT22;21661;50.794;-1.066;2024-02-21T03:52:20;10.40;99.90
35559;DHT22;21661;50.794;-1.066;2024-02-21T03:54:46;10.30;99.90
35559;DHT22;21661;50.794;-1.066;2024-02-21T03:57:11;10.30;99.90
35559;DHT22;21661;50.794;-1.066;2024-02-21T03:59:37;10.30;99.90
35559;DHT22;21661;50.794;-1.066;2024-02-21T04:02:05;10.30;99.90
35559;DHT22;21661;50.794;-1.066;2024-02-21T04:04:34;10.30;99.90
35559;DHT22;21661;50.794;-1.066;2024-02-21T04:07:00;10.30;99.90
35559;DHT22;21661;50.794;-1.066;2024-02-21T04:09:26;10.30;99.90
35559;DHT22;21661;50.794;-1.066;2024-02-21T04:11:52;10.30;99.90
35559;DHT22;21661;50.794;-1.066;2024-02-21T04:14:17;10.30;99.90
35559;DHT22;21661;50.794;-1.066;2024-02-21T04:16:43;10.30;99.90
35559;DHT22;21661;50.794;-1.066;2024-02-21T04:19:08;10.40;99.90
35559;DHT22;21661;50.794;-1.066;2024-02-21T04:21:34;10.40;99.90
35559;DHT22;21661;50.794;-1.066;2024-02-21T04:24:00;10.40;99.90
35559;DHT22;21661;50.794;-1.066;2024-02-21T04:26:27;10.40;99.90
35559;DHT22;21661;50.794;-1.066;2024-02-21T04:28:53;10.40;99.90
35559;DHT22;21661;50.794;-1.066;2024-02-21T04:31:18;10.40;99.90
35559;DHT22;21661;50.794;-1.066;2024-02-21T04:33:44;10.30;99.90
35559;DHT22;21661;50.794;-1.066;2024-02-21T04:36:10;10.40;99.90
35559;DHT22;21661;50.794;-1.066;2024-02-21T04:38:35;10.40;99.90
35559;DHT22;21661;50.794;-1.066;2024-02-21T04:41:01;10.40;99.90
35559;DHT22;21661;50.794;-1.066;2024-02-21T04:43:27;10.40;99.90
35559;DHT22;21661;50.794;-1.066;2024-02-21T04:45:52;10.30;99.90
35559;DHT22;21661;50.794;-1.066;2024-02-21T04:48:19;10.30;99.90
35559;DHT22;21661;50.794;-1.066;2024-02-21T04:50:45;10.20;99.90
35559;DHT22;21661;50.794;-1.066;2024-02-21T04:53:11;10.20;99.90
35559;DHT22;21661;50.794;-1.066;2024-02-21T04:55:36;10.20;99.90
35559;DHT22;21661;50.794;-1.066;2024-02-21T04:58:02;10.20;99.90
35559;DHT22;21661;50.794;-1.066;2024-02-21T05:00:28;10.20;99.90
35559;DHT22;21661;50.794;-1.066;2024-02-21T05:02:54;10.10;99.90
35559;DHT22;21661;50.794;-1.066;2024-02-21T05:05:19;10.10;99.90
35559;DHT22;21661;50.794;-1.066;2024-02-21T05:07:45;10.10;99.90
35559;DHT22;21661;50.794;-1.066;2024-02-21T05:10:10;10.10;99.90
35559;DHT22;21661;50.794;-1.066;2024-02-21T05:12:36;10.10;99.90
35559;DHT22;21661;50.794;-1.066;2024-02-21T05:15:03;10.10;99.90
35559;DHT22;21661;50.794;-1.066;2024-02-21T05:17:28;10.10;99.90
35559;DHT22;21661;50.794;-1.066;2024-02-21T05:19:54;10.10;99.90
35559;DHT22;21661;50.794;-1.066;2024-02-21T05:22:20;10.10;99.90
35559;DHT22;21661;50.794;-1.066;2024-02-21T05:24:45;10.10;99.90
35559;DHT22;21661;50.794;-1.066;2024-02-21T05:27:11;10.10;99.90
35559;DHT22;21661;50.794;-1.066;2024-02-21T05:29:37;10.10;99.90
35559;DHT22;21661;50.794;-1.066;2024-02-21T05:32:02;10.00;99.90
35559;DHT22;21661;50.794;-1.066;2024-02-21T05:34:28;10.10;99.90
35559;DHT22;21661;50.794;-1.066;2024-02-21T05:36:54;10.00;99.90
35559;DHT22;21661;50.794;-1.066;2024-02-21T05:39:20;10.00;99.90
35559;DHT22;21661;50.794;-1.066;2024-02-21T05:41:48;10.00;99.90
35559;DHT22;21661;50.794;-1.066;2024-02-21T05:44:13;10.00;99.90
35559;DHT22;21661;50.794;-1.066;2024-02-21T05:46:39;10.00;99.90
35559;DHT22;21661;50.794;-1.066;2024-02-21T05:49:05;10.10;99.90
35559;DHT22;21661;50.794;-1.066;2024-02-21T05:51:35;10.00;99.90
35559;DHT22;21661;50.794;-1.066;2024-02-21T05:54:01;10.00;99.90
35559;DHT22;21661;50.794;-1.066;2024-02-21T05:56:27;10.00;99.90
35559;DHT22;21661;50.794;-1.066;2024-02-21T05:58:52;10.00;99.90
35559;DHT22;21661;50.794;-1.066;2024-02-21T06:01:18;10.00;99.90
35559;DHT22;21661;50.794;-1.066;2024-02-21T06:03:44;10.00;99.90
35559;DHT22;21661;50.794;-1.066;2024-02-21T06:06:09;10.00;99.90
35559;DHT22;21661;50.794;-1.066;2024-02-21T06:08:35;10.00;99.90
35559;DHT22;21661;50.794;-1.066;2024-02-21T06:11:00;10.00;99.90
35559;DHT22;21661;50.794;-1.066;2024-02-21T06:13:26;10.00;99.90
35559;DHT22;21661;50.794;-1.066;2024-02-21T06:15:52;10.00;99.90
35559;DHT22;21661;50.794;-1.066;2024-02-21T06:18:19;10.00;99.90
35559;DHT22;21661;50.794;-1.066;2024-02-21T06:20:44;10.10;99.90
35559;DHT22;21661;50.794;-1.066;2024-02-21T06:23:12;10.00;99.90
35559;DHT22;21661;50.794;-1.066;2024-02-21T06:25:38;10.00;99.90
35559;DHT22;21661;50.794;-1.066;2024-02-21T06:28:04;10.00;99.90
35559;DHT22;21661;50.794;-1.066;2024-02-21T06:30:30;10.00;99.90
35559;DHT22;21661;50.794;-1.066;2024-02-21T06:32:56;10.10;99.90
35559;DHT22;21661;50.794;-1.066;2024-02-21T06:35:22;10.10;99.90
35559;DHT22;21661;50.794;-1.066;2024-02-21T06:37:50;10.10;99.90
35559;DHT22;21661;50.794;-1.066;2024-02-21T06:40:21;10.10;99.90
35559;DHT22;21661;50.794;-1.066;2024-02-21T06:42:47;10.10;99.90
35559;DHT22;21661;50.794;-1.066;2024-02-21T06:45:13;10.10;99.90
35559;DHT22;21661;50.794;-1.066;2024-02-21T06:47:39;10.10;99.90
35559;DHT22;21661;50.794;-1.066;2024-02-21T06:50:05;10.10;99.90
35559;DHT22;21661;50.794;-1.066;2024-02-21T06:52:30;10.10;99.90
35559;DHT22;21661;50.794;-1.066;2024-02-21T06:54:56;10.10;99.90
35559;DHT22;21661;50.794;-1.066;2024-02-21T06:57:22;10.10;99.90
35559;DHT22;21661;50.794;-1.066;2024-02-21T06:59:48;10.10;99.90
35559;DHT22;21661;50.794;-1.066;2024-02-21T07:02:13;10.10;99.90
35559;DHT22;21661;50.794;-1.066;2024-02-21T07:04:39;10.10;99.90
35559;DHT22;21661;50.794;-1.066;2024-02-21T07:07:05;10.10;99.90
35559;DHT22;21661;50.794;-1.066;2024-02-21T07:09:30;10.20;99.90
35559;DHT22;21661;50.794;-1.066;2024-02-21T07:11:58;10.20;99.90
35559;DHT22;21661;50.794;-1.066;2024-02-21T07:14:24;10.20;99.90
35559;DHT22;21661;50.794;-1.066;2024-02-21T07:16:49;10.20;99.90
35559;DHT22;21661;50.794;-1.066;2024-02-21T07:19:15;10.20;99.90
35559;DHT22;21661;50.794;-1.066;2024-02-21T07:21:40;10.20;99.90
35559;DHT22;21661;50.794;-1.066;2024-02-21T07:24:09;10.20;99.90
35559;DHT22;21661;50.794;-1.066;2024-02-21T07:26:35;10.20;99.90
35559;DHT22;21661;50.794;-1.066;2024-02-21T07:29:01;10.20;99.90
35559;DHT22;21661;50.794;-1.066;2024-02-21T07:31:26;10.20;99.90
35559;DHT22;21661;50.794;-1.066;2024-02-21T07:33:52;10.10;99.90
35559;DHT22;21661;50.794;-1.066;2024-02-21T07:36:28;10.20;99.90
35559;DHT22;21661;50.794;-1.066;2024-02-21T07:38:55;10.10;99.90
35559;DHT22;21661;50.794;-1.066;2024-02-21T07:41:20;10.10;99.90
35559;DHT22;21661;50.794;-1.066;2024-02-21T07:43:46;10.10;99.90
35559;DHT22;21661;50.794;-1.066;2024-02-21T07:46:14;10.10;99.90
35559;DHT22;21661;50.794;-1.066;2024-02-21T07:48:39;10.10;99.90
35559;DHT22;21661;50.794;-1.066;2024-02-21T07:51:05;10.10;99.90
35559;DHT22;21661;50.794;-1.066;2024-02-21T07:53:30;10.10;99.90
35559;DHT22;21661;50.794;-1.066;2024-02-21T07:55:56;10.10;99.90
35559;DHT22;21661;50.794;-1.066;2024-02-21T07:58:21;10.10;99.90
35559;DHT22;21661;50.794;-1.066;2024-02-21T08:00:47;10.10;99.90
35559;DHT22;21661;50.794;-1.066;2024-02-21T08:03:13;10.10;99.90
35559;DHT22;21661;50.794;-1.066;2024-02-21T08:05:40;10.10;99.90
35559;DHT22;21661;50.794;-1.066;2024-02-21T08:08:06;10.10;99.90
35559;DHT22;21661;50.794;-1.066;2024-02-21T08:10:33;10.10;99.90
35559;DHT22;21661;50.794;-1.066;2024-02-21T08:12:59;10.10;99.90
35559;DHT22;21661;50.794;-1.066;2024-02-21T08:15:25;10.10;99.90
35559;DHT22;21661;50.794;-1.066;2024-02-21T08:17:55;10.10;99.90
35559;DHT22;21661;50.794;-1.066;2024-02-21T08:20:24;10.10;99.90
35559;DHT22;21661;50.794;-1.066;2024-02-21T08:22:50;10.10;99.90
35559;DHT22;21661;50.794;-1.066;2024-02-21T08:25:15;10.20;99.90
35559;DHT22;21661;50.794;-1.066;2024-02-21T08:27:41;10.10;99.90
35559;DHT22;21661;50.794;-1.066;2024-02-21T08:30:07;10.10;99.90
35559;DHT22;21661;50.794;-1.066;2024-02-21T08:32:33;10.10;99.90
35559;DHT22;21661;50.794;-1.066;2024-02-21T08:35:01;10.10;99.90
35559;DHT22;21661;50.794;-1.066;2024-02-21T08:37:29;10.10;99.90
35559;DHT22;21661;50.794;-1.066;2024-02-21T08:39:55;10.10;99.90
35559;DHT22;21661;50.794;-1.066;2024-02-21T08:42:21;10.10;99.90
35559;DHT22;21661;50.794;-1.066;2024-02-21T08:44:46;10.10;99.90
35559;DHT22;21661;50.794;-1.066;2024-02-21T08:47:12;10.20;99.90
35559;DHT22;21661;50.794;-1.066;2024-02-21T08:49:38;10.10;99.90
35559;DHT22;21661;50.794;-1.066;2024-02-21T08:52:04;10.20;99.90
35559;DHT22;21661;50.794;-1.066;2024-02-21T08:54:30;10.20;99.90
35559;DHT22;21661;50.794;-1.066;2024-02-21T08:56:56;10.20;99.90
35559;DHT22;21661;50.794;-1.066;2024-02-21T08:59:22;10.20;99.90
35559;DHT22;21661;50.794;-1.066;2024-02-21T09:01:48;10.20;99.90
35559;DHT22;21661;50.794;-1.066;2024-02-21T09:04:13;10.10;99.90
35559;DHT22;21661;50.794;-1.066;2024-02-21T09:06:39;10.20;99.90
35559;DHT22;21661;50.794;-1.066;2024-02-21T09:09:08;10.20;99.90
35559;DHT22;21661;50.794;-1.066;2024-02-21T09:11:35;10.20;99.90
35559;DHT22;21661;50.794;-1.066;2024-02-21T09:14:00;10.20;99.90
35559;DHT22;21661;50.794;-1.066;2024-02-21T09:16:26;10.10;99.90
35559;DHT22;21661;50.794;-1.066;2024-02-21T09:18:52;10.20;99.90
35559;DHT22;21661;50.794;-1.066;2024-02-21T09:21:18;10.20;99.90
35559;DHT22;21661;50.794;-1.066;2024-02-21T09:23:44;10.20;99.90
35559;DHT22;21661;50.794;-1.066;2024-02-21T09:26:10;10.20;99.90
35559;DHT22;21661;50.794;-1.066;2024-02-21T09:28:39;10.20;99.90
35559;DHT22;21661;50.794;-1.066;2024-02-21T09:31:05;10.20;99.90
35559;DHT22;21661;50.794;-1.066;2024-02-21T09:33:30;10.20;99.90
35559;DHT22;21661;50.794;-1.066;2024-02-21T09:35:56;10.20;99.90
35559;DHT22;21661;50.794;-1.066;2024-02-21T09:38:22;10.20;99.90
35559;DHT22;21661;50.794;-1.066;2024-02-21T09:40:48;10.20;99.90
35559;DHT22;21661;50.794;-1.066;2024-02-21T09:43:18;10.20;99.90
35559;DHT22;21661;50.794;-1.066;2024-02-21T09:45:46;10.20;99.90
35559;DHT22;21661;50.794;-1.066;2024-02-21T09:48:29;10.20;99.90
35559;DHT22;21661;50.794;-1.066;2024-02-21T09:50:57;10.20;99.90
35559;DHT22;21661;50.794;-1.066;2024-02-21T09:53:24;10.20;99.90
35559;DHT22;21661;50.794;-1.066;2024-02-21T09:55:51;10.20;99.90
35559;DHT22;21661;50.794;-1.066;2024-02-21T09:58:17;10.20;99.90
35559;DHT22;21661;50.794;-1.066;2024-02-21T10:00:42;10.20;99.90
35559;DHT22;21661;50.794;-1.066;2024-02-21T10:03:08;10.20;99.90
35559;DHT22;21661;50.794;-1.066;2024-02-21T10:05:37;10.20;99.90
35559;DHT22;21661;50.794;-1.066;2024-02-21T10:08:04;10.20;99.90
35559;DHT22;21661;50.794;-1.066;2024-02-21T10:10:40;10.20;99.90
35559;DHT22;21661;50.794;-1.066;2024-02-21T10:13:05;10.20;99.90
35559;DHT22;21661;50.794;-1.066;2024-02-21T10:15:31;10.20;99.90
35559;DHT22;21661;50.794;-1.066;2024-02-21T10:18:01;10.20;99.90
35559;DHT22;21661;50.794;-1.066;2024-02-21T10:20:29;10.20;99.90
35559;DHT22;21661;50.794;-1.066;2024-02-21T10:23:04;10.20;99.90
35559;DHT22;21661;50.794;-1.066;2024-02-21T10:25:36;10.20;99.90
35559;DHT22;21661;50.794;-1.066;2024-02-21T10:28:07;10.20;99.90
35559;DHT22;21661;50.794;-1.066;2024-02-21T10:30:32;10.20;99.90
35559;DHT22;21661;50.794;-1.066;2024-02-21T10:32:58;10.20;99.90
35559;DHT22;21661;50.794;-1.066;2024-02-21T10:37:56;10.20;99.90
35559;DHT22;21661;50.794;-1.066;2024-02-21T10:40:27;10.20;99.90
35559;DHT22;21661;50.794;-1.066;2024-02-21T10:42:57;10.20;99.90
35559;DHT22;21661;50.794;-1.066;2024-02-21T10:45:30;10.30;99.90
35559;DHT22;21661;50.794;-1.066;2024-02-21T10:48:22;10.30;99.90
35559;DHT22;21661;50.794;-1.066;2024-02-21T10:51:18;10.30;99.90
35559;DHT22;21661;50.794;-1.066;2024-02-21T10:56:33;10.30;99.90
35559;DHT22;21661;50.794;-1.066;2024-02-21T10:59:03;10.30;99.90
35559;DHT22;21661;50.794;-1.066;2024-02-21T11:01:29;10.40;99.90
35559;DHT22;21661;50.794;-1.066;2024-02-21T11:03:59;10.40;99.90
35559;DHT22;21661;50.794;-1.066;2024-02-21T11:06:27;10.40;99.90
35559;DHT22;21661;50.794;-1.066;2024-02-21T11:09:04;10.50;99.90
35559;DHT22;21661;50.794;-1.066;2024-02-21T11:12:06;10.50;99.90
35559;DHT22;21661;50.794;-1.066;2024-02-21T11:14:27;10.50;99.90
35559;DHT22;21661;50.794;-1.066;2024-02-21T11:16:53;10.50;99.90
35559;DHT22;21661;50.794;-1.066;2024-02-21T11:19:28;10.50;99.90
35559;DHT22;21661;50.794;-1.066;2024-02-21T11:21:55;10.60;99.90
35559;DHT22;21661;50.794;-1.066;2024-02-21T11:24:32;10.60;99.90
35559;DHT22;21661;50.794;-1.066;2024-02-21T11:27:13;10.60;99.90
35559;DHT22;21661;50.794;-1.066;2024-02-21T11:29:45;10.60;99.90
35559;DHT22;21661;50.794;-1.066;2024-02-21T11:32:11;10.60;99.90
35559;DHT22;21661;50.794;-1.066;2024-02-21T11:34:39;10.60;99.90
35559;DHT22;21661;50.794;-1.066;2024-02-21T11:37:13;10.70;99.90
35559;DHT22;21661;50.794;-1.066;2024-02-21T11:39:41;10.70;99.90
35559;DHT22;21661;50.794;-1.066;2024-02-21T11:42:08;10.70;99.90
35559;DHT22;21661;50.794;-1.066;2024-02-21T11:44:38;10.70;99.90
35559;DHT22;21661;50.794;-1.066;2024-02-21T11:47:05;10.70;99.90
35559;DHT22;21661;50.794;-1.066;2024-02-21T11:49:37;10.80;99.90
35559;DHT22;21661;50.794;-1.066;2024-02-21T11:52:06;10.70;99.90
35559;DHT22;21661;50.794;-1.066;2024-02-21T11:54:33;10.80;99.90
35559;DHT22;21661;50.794;-1.066;2024-02-21T11:57:00;10.80;99.90
35559;DHT22;21661;50.794;-1.066;2024-02-21T11:59:26;10.80;99.90
35559;DHT22;21661;50.794;-1.066;2024-02-21T12:01:53;10.80;99.90
35559;DHT22;21661;50.794;-1.066;2024-02-21T12:04:20;10.80;99.90
35559;DHT22;21661;50.794;-1.066;2024-02-21T12:06:46;10.80;99.90
35559;DHT22;21661;50.794;-1.066;2024-02-21T12:09:18;10.80;99.90
35559;DHT22;21661;50.794;-1.066;2024-02-21T12:11:44;10.80;99.90
35559;DHT22;21661;50.794;-1.066;2024-02-21T12:14:10;10.80;99.90
35559;DHT22;21661;50.794;-1.066;2024-02-21T12:16:36;10.80;99.90
35559;DHT22;21661;50.794;-1.066;2024-02-21T12:19:02;10.80;99.90
35559;DHT22;21661;50.794;-1.066;2024-02-21T12:21:35;10.80;99.90
35559;DHT22;21661;50.794;-1.066;2024-02-21T12:26:40;10.90;99.90
35559;DHT22;21661;50.794;-1.066;2024-02-21T12:29:06;11.00;99.90
35559;DHT22;21661;50.794;-1.066;2024-02-21T12:31:31;10.90;99.90
35559;DHT22;21661;50.794;-1.066;2024-02-21T12:33:57;10.90;99.90
35559;DHT22;21661;50.794;-1.066;2024-02-21T12:36:23;10.90;99.90
35559;DHT22;21661;50.794;-1.066;2024-02-21T12:38:49;10.90;99.90
35559;DHT22;21661;50.794;-1.066;2024-02-21T12:41:15;10.90;99.90
35559;DHT22;21661;50.794;-1.066;2024-02-21T12:43:40;10.90;99.90
35559;DHT22;21661;50.794;-1.066;2024-02-21T12:46:06;11.00;99.90
35559;DHT22;21661;50.794;-1.066;2024-02-21T12:48:34;10.90;99.90
35559;DHT22;21661;50.794;-1.066;2024-02-21T12:51:00;11.00;99.90
35559;DHT22;21661;50.794;-1.066;2024-02-21T12:53:26;10.90;99.90
35559;DHT22;21661;50.794;-1.066;2024-02-21T12:55:51;11.00;99.90
35559;DHT22;21661;50.794;-1.066;2024-02-21T12:58:17;11.00;99.90
35559;DHT22;21661;50.794;-1.066;2024-02-21T13:00:42;11.00;99.90
35559;DHT22;21661;50.794;-1.066;2024-02-21T13:03:08;11.00;99.90
35559;DHT22;21661;50.794;-1.066;2024-02-21T13:05:38;11.00;99.90
35559;DHT22;21661;50.794;-1.066;2024-02-21T13:08:05;11.00;99.90
35559;DHT22;21661;50.794;-1.066;2024-02-21T13:10:31;11.00;99.90
35559;DHT22;21661;50.794;-1.066;2024-02-21T13:12:58;11.00;99.90
35559;DHT22;21661;50.794;-1.066;2024-02-21T13:15:24;11.00;99.90
35559;DHT22;21661;50.794;-1.066;2024-02-21T13:17:50;11.00;99.90
35559;DHT22;21661;50.794;-1.066;2024-02-21T13:20:15;10.90;99.90
35559;DHT22;21661;50.794;-1.066;2024-02-21T13:22:41;11.00;99.90
35559;DHT22;21661;50.794;-1.066;2024-02-21T13:25:07;10.90;99.90
35559;DHT22;21661;50.794;-1.066;2024-02-21T13:27:35;11.00;99.90
35559;DHT22;21661;50.794;-1.066;2024-02-21T13:30:01;11.00;99.90
35559;DHT22;21661;50.794;-1.066;2024-02-21T13:32:31;11.00;99.90
35559;DHT22;21661;50.794;-1.066;2024-02-21T13:34:57;11.00;99.90
35559;DHT22;21661;50.794;-1.066;2024-02-21T13:37:25;11.00;99.90
35559;DHT22;21661;50.794;-1.066;2024-02-21T13:39:52;11.00;99.90
35559;DHT22;21661;50.794;-1.066;2024-02-21T13:42:18;11.00;99.90
35559;DHT22;21661;50.794;-1.066;2024-02-21T13:44:44;10.90;99.90
35559;DHT22;21661;50.794;-1.066;2024-02-21T13:47:14;10.90;99.90
35559;DHT22;21661;50.794;-1.066;2024-02-21T13:49:40;11.00;99.90
35559;DHT22;21661;50.794;-1.066;2024-02-21T13:52:06;11.00;99.90
35559;DHT22;21661;50.794;-1.066;2024-02-21T13:54:32;11.00;99.90
35559;DHT22;21661;50.794;-1.066;2024-02-21T13:56:57;11.00;99.90
35559;DHT22;21661;50.794;-1.066;2024-02-21T13:59:23;11.00;99.90
35559;DHT22;21661;50.794;-1.066;2024-02-21T14:01:49;11.00;99.90
35559;DHT22;21661;50.794;-1.066;2024-02-21T14:04:14;11.00;99.90
35559;DHT22;21661;50.794;-1.066;2024-02-21T14:06:40;11.10;99.90
35559;DHT22;21661;50.794;-1.066;2024-02-21T14:09:09;11.10;99.90
35559;DHT22;21661;50.794;-1.066;2024-02-21T14:11:35;11.10;99.90
35559;DHT22;21661;50.794;-1.066;2024-02-21T14:14:01;11.10;99.90
35559;DHT22;21661;50.794;-1.066;2024-02-21T14:16:26;11.00;99.90
35559;DHT22;21661;50.794;-1.066;2024-02-21T14:18:52;11.00;99.90
35559;DHT22;21661;50.794;-1.066;2024-02-21T14:21:19;11.00;99.90
35559;DHT22;21661;50.794;-1.066;2024-02-21T14:23:45;11.00;99.90
35559;DHT22;21661;50.794;-1.066;2024-02-21T14:26:11;11.00;99.90
35559;DHT22;21661;50.794;-1.066;2024-02-21T14:28:37;11.00;99.90
35559;DHT22;21661;50.794;-1.066;2024-02-21T14:31:03;11.00;99.90
35559;DHT22;21661;50.794;-1.066;2024-02-21T14:33:31;11.00;99.90
35559;DHT22;21661;50.794;-1.066;2024-02-21T14:35:56;11.00;99.90
35559;DHT22;21661;50.794;-1.066;2024-02-21T14:38:22;11.10;99.90
35559;DHT22;21661;50.794;-1.066;2024-02-21T14:40:48;11.10;99.90
35559;DHT22;21661;50.794;-1.066;2024-02-21T14:43:14;11.10;99.90
35559;DHT22;21661;50.794;-1.066;2024-02-21T14:45:40;11.10;99.90
35559;DHT22;21661;50.794;-1.066;2024-02-21T14:48:06;11.10;99.90
35559;DHT22;21661;50.794;-1.066;2024-02-21T14:50:32;11.10;99.90
35559;DHT22;21661;50.794;-1.066;2024-02-21T14:52:58;11.20;99.90
35559;DHT22;21661;50.794;-1.066;2024-02-21T14:55:23;11.20;99.90
35559;DHT22;21661;50.794;-1.066;2024-02-21T14:57:49;11.20;99.90
35559;DHT22;21661;50.794;-1.066;2024-02-21T15:00:15;11.20;99.90
35559;DHT22;21661;50.794;-1.066;2024-02-21T15:02:41;11.20;99.90
35559;DHT22;21661;50.794;-1.066;2024-02-21T15:05:08;11.30;99.90
35559;DHT22;21661;50.794;-1.066;2024-02-21T15:07:34;11.30;99.90
35559;DHT22;21661;50.794;-1.066;2024-02-21T15:09:59;11.30;99.90
35559;DHT22;21661;50.794;-1.066;2024-02-21T15:12:25;11.30;99.90
35559;DHT22;21661;50.794;-1.066;2024-02-21T15:14:51;11.40;99.90
35559;DHT22;21661;50.794;-1.066;2024-02-21T15:17:17;11.40;99.90
35559;DHT22;21661;50.794;-1.066;2024-02-21T15:19:44;11.50;99.90